Skip Navigation LinksHome page > Weather > Current weather Skip Navigation Links

Current Weather

Denver Intl, Denver

For information only: do not use for flight planning or navigation.
Latest weather
Observation time Sunday, May 26, 2019 9:08 AM MDT
Local time Sunday, May 26, 2019 9:54 AM MDT
Flight conditions Marginal Visual Meteorological Conditions
Winds
Wind direction Northwest (310°)
Wind speed 9 mph
Visibility 8 mi.
Sky condition
Ceiling 1,000 ft. overcast
Cloud layer overcast 1,000 ft.
Temperature 56°F
Dewpoint 51°F
Altimeter 30.01 in.Hg
Derived measurements
Relative humidity 84%
Density altitude 5308 ft.
Remarks
Automated weather observing station with precipitation discriminator.
METAR KDEN 261508Z 31008KT 8SM OVC010 13/11 A3001 RMK AO2 T01330106

Settings

Location code

InnerDrive.Weather 4.0.6770.0 Release CLR 4.0.30319.42000
Copyright ©2018 Inner Drive Technology. All rights reserved. Portions Copyright ©1986-2018 David Braverman.

Find weather

Site navigation


Skip Navigation Links

Place info

Page info

PayPal - The safer, easier way to pay online!

Return home.

Copyright ©2019 Inner Drive Technology. Purveyors of fine, hand-crafted computer software. Page printed 2019-05-26T15:54:24 UTC.